sensor_id;sensor_type;location;lat;lon;timestamp;pressure;altitude;pressure_sealevel;temperature;humidity
30338;BME280;17143;51.888;5.408;2022-12-18T00:10:12;102685.88;;;-2.53;100.00
30338;BME280;17143;51.888;5.408;2022-12-18T00:25:14;102667.16;;;-2.72;100.00
30338;BME280;17143;51.888;5.408;2022-12-18T00:40:16;102649.31;;;-2.84;100.00
30338;BME280;17143;51.888;5.408;2022-12-18T00:55:18;102670.47;;;-3.03;100.00
30338;BME280;17143;51.888;5.408;2022-12-18T01:10:23;102675.00;;;-3.26;100.00
30338;BME280;17143;51.888;5.408;2022-12-18T01:25:26;102665.16;;;-3.36;100.00
30338;BME280;17143;51.888;5.408;2022-12-18T01:40:28;102672.47;;;-3.44;100.00
30338;BME280;17143;51.888;5.408;2022-12-18T01:55:32;102684.00;;;-3.59;100.00
30338;BME280;17143;51.888;5.408;2022-12-18T02:10:44;102685.28;;;-3.68;100.00
30338;BME280;17143;51.888;5.408;2022-12-18T02:26:11;102676.16;;;-3.79;100.00
30338;BME280;17143;51.888;5.408;2022-12-18T02:41:19;102671.53;;;-3.81;100.00
30338;BME280;17143;51.888;5.408;2022-12-18T02:56:28;102662.00;;;-3.95;100.00
30338;BME280;17143;51.888;5.408;2022-12-18T03:11:34;102646.38;;;-4.03;100.00
30338;BME280;17143;51.888;5.408;2022-12-18T03:26:43;102641.66;;;-3.95;100.00
30338;BME280;17143;51.888;5.408;2022-12-18T03:41:51;102616.47;;;-3.99;100.00
30338;BME280;17143;51.888;5.408;2022-12-18T03:57:29;102611.31;;;-4.11;100.00
30338;BME280;17143;51.888;5.408;2022-12-18T04:12:33;102590.09;;;-4.17;100.00
30338;BME280;17143;51.888;5.408;2022-12-18T04:27:36;102590.66;;;-4.25;100.00
30338;BME280;17143;51.888;5.408;2022-12-18T04:42:40;102604.59;;;-4.29;100.00
30338;BME280;17143;51.888;5.408;2022-12-18T04:57:42;102618.06;;;-4.36;100.00
30338;BME280;17143;51.888;5.408;2022-12-18T05:12:44;102629.22;;;-4.41;100.00
30338;BME280;17143;51.888;5.408;2022-12-18T05:27:46;102629.75;;;-4.49;100.00
30338;BME280;17143;51.888;5.408;2022-12-18T05:42:48;102637.66;;;-4.53;100.00
30338;BME280;17143;51.888;5.408;2022-12-18T05:57:50;102611.81;;;-4.56;100.00
30338;BME280;17143;51.888;5.408;2022-12-18T06:12:52;102587.78;;;-4.58;100.00
30338;BME280;17143;51.888;5.408;2022-12-18T06:27:54;102587.78;;;-4.58;100.00
30338;BME280;17143;51.888;5.408;2022-12-18T06:42:56;102583.22;;;-4.66;100.00
30338;BME280;17143;51.888;5.408;2022-12-18T06:57:58;102552.34;;;-4.69;100.00
30338;BME280;17143;51.888;5.408;2022-12-18T07:13:00;102542.56;;;-4.66;100.00
30338;BME280;17143;51.888;5.408;2022-12-18T07:28:03;102518.00;;;-4.60;100.00
30338;BME280;17143;51.888;5.408;2022-12-18T07:43:05;102507.03;;;-4.48;100.00
30338;BME280;17143;51.888;5.408;2022-12-18T07:58:08;102485.69;;;-4.24;100.00
30338;BME280;17143;51.888;5.408;2022-12-18T08:13:10;102474.59;;;-3.94;100.00
30338;BME280;17143;51.888;5.408;2022-12-18T08:28:12;102490.38;;;-3.66;100.00
30338;BME280;17143;51.888;5.408;2022-12-18T08:43:14;102486.97;;;-3.29;100.00
30338;BME280;17143;51.888;5.408;2022-12-18T08:58:16;102470.03;;;-2.65;100.00
30338;BME280;17143;51.888;5.408;2022-12-18T09:13:18;102480.38;;;-2.51;100.00
30338;BME280;17143;51.888;5.408;2022-12-18T09:28:20;102486.69;;;-2.42;100.00
30338;BME280;17143;51.888;5.408;2022-12-18T09:43:26;102461.72;;;-2.25;100.00
30338;BME280;17143;51.888;5.408;2022-12-18T09:58:31;102425.34;;;-2.17;100.00
30338;BME280;17143;51.888;5.408;2022-12-18T10:13:41;102429.59;;;-1.91;100.00
30338;BME280;17143;51.888;5.408;2022-12-18T10:28:45;102423.69;;;-1.77;100.00
30338;BME280;17143;51.888;5.408;2022-12-18T10:43:48;102385.31;;;-1.64;100.00
30338;BME280;17143;51.888;5.408;2022-12-18T10:58:57;102377.72;;;-1.50;100.00
30338;BME280;17143;51.888;5.408;2022-12-18T11:14:02;102359.72;;;-1.38;100.00
30338;BME280;17143;51.888;5.408;2022-12-18T11:29:15;102333.41;;;-1.10;100.00
30338;BME280;17143;51.888;5.408;2022-12-18T11:44:23;102329.09;;;-0.90;100.00
30338;BME280;17143;51.888;5.408;2022-12-18T11:59:33;102308.84;;;-0.81;100.00
30338;BME280;17143;51.888;5.408;2022-12-18T12:14:48;102277.63;;;-0.65;100.00
30338;BME280;17143;51.888;5.408;2022-12-18T12:30:02;102266.50;;;-0.51;100.00
30338;BME280;17143;51.888;5.408;2022-12-18T12:45:14;102234.13;;;-0.43;100.00
30338;BME280;17143;51.888;5.408;2022-12-18T13:00:19;102216.22;;;-0.36;100.00
30338;BME280;17143;51.888;5.408;2022-12-18T13:15:24;102201.59;;;-0.30;100.00
30338;BME280;17143;51.888;5.408;2022-12-18T13:30:48;102197.19;;;-0.24;100.00
30338;BME280;17143;51.888;5.408;2022-12-18T13:46:00;102192.06;;;-0.24;100.00
30338;BME280;17143;51.888;5.408;2022-12-18T14:01:03;102164.59;;;-0.11;100.00
30338;BME280;17143;51.888;5.408;2022-12-18T14:16:06;102145.56;;;-0.13;100.00
30338;BME280;17143;51.888;5.408;2022-12-18T14:31:17;102138.66;;;-0.14;99.95
30338;BME280;17143;51.888;5.408;2022-12-18T14:46:32;102110.06;;;-0.03;99.16
30338;BME280;17143;51.888;5.408;2022-12-18T15:01:37;102115.19;;;-0.10;99.57
30338;BME280;17143;51.888;5.408;2022-12-18T15:16:40;102101.31;;;-0.12;99.56
30338;BME280;17143;51.888;5.408;2022-12-18T15:31:42;102083.34;;;-0.05;98.99
30338;BME280;17143;51.888;5.408;2022-12-18T15:46:44;102093.28;;;-0.08;98.70
30338;BME280;17143;51.888;5.408;2022-12-18T16:01:48;102070.91;;;-0.02;98.03
30338;BME280;17143;51.888;5.408;2022-12-18T16:16:53;102051.13;;;0.04;97.33
30338;BME280;17143;51.888;5.408;2022-12-18T16:31:56;102032.06;;;0.09;97.27
30338;BME280;17143;51.888;5.408;2022-12-18T16:46:59;102014.16;;;0.09;97.30
30338;BME280;17143;51.888;5.408;2022-12-18T17:02:01;101990.53;;;0.12;97.53
30338;BME280;17143;51.888;5.408;2022-12-18T17:17:03;101995.06;;;0.21;96.56
30338;BME280;17143;51.888;5.408;2022-12-18T17:32:06;102010.06;;;0.18;97.07
30338;BME280;17143;51.888;5.408;2022-12-18T17:47:08;102002.50;;;0.27;97.21
30338;BME280;17143;51.888;5.408;2022-12-18T18:02:10;101997.13;;;0.32;97.78
30338;BME280;17143;51.888;5.408;2022-12-18T18:17:12;101978.81;;;0.36;97.25
30338;BME280;17143;51.888;5.408;2022-12-18T18:32:14;101986.38;;;0.50;95.85
30338;BME280;17143;51.888;5.408;2022-12-18T18:47:16;101971.75;;;0.49;96.08
30338;BME280;17143;51.888;5.408;2022-12-18T19:02:18;101969.47;;;0.59;95.95
30338;BME280;17143;51.888;5.408;2022-12-18T19:17:20;101957.34;;;0.66;95.91
30338;BME280;17143;51.888;5.408;2022-12-18T19:32:22;101959.09;;;0.74;95.53
30338;BME280;17143;51.888;5.408;2022-12-18T19:47:25;101968.19;;;0.79;96.17
30338;BME280;17143;51.888;5.408;2022-12-18T20:02:27;101955.03;;;0.76;99.08
30338;BME280;17143;51.888;5.408;2022-12-18T20:17:29;101960.25;;;0.69;100.00
30338;BME280;17143;51.888;5.408;2022-12-18T20:32:31;101969.00;;;0.71;100.00
30338;BME280;17143;51.888;5.408;2022-12-18T20:47:33;101953.97;;;0.74;100.00
30338;BME280;17143;51.888;5.408;2022-12-18T21:02:36;101935.25;;;0.75;100.00
30338;BME280;17143;51.888;5.408;2022-12-18T21:17:37;101898.22;;;0.80;100.00
30338;BME280;17143;51.888;5.408;2022-12-18T21:32:39;101875.22;;;0.88;100.00
30338;BME280;17143;51.888;5.408;2022-12-18T21:47:41;101885.91;;;1.00;100.00
30338;BME280;17143;51.888;5.408;2022-12-18T22:02:44;101844.75;;;1.07;100.00
30338;BME280;17143;51.888;5.408;2022-12-18T22:17:46;101814.38;;;1.18;100.00
30338;BME280;17143;51.888;5.408;2022-12-18T22:32:48;101774.66;;;1.15;100.00
30338;BME280;17143;51.888;5.408;2022-12-18T22:47:50;101759.16;;;1.22;100.00
30338;BME280;17143;51.888;5.408;2022-12-18T23:02:52;101718.59;;;1.27;100.00
30338;BME280;17143;51.888;5.408;2022-12-18T23:17:55;101708.16;;;1.25;100.00
30338;BME280;17143;51.888;5.408;2022-12-18T23:32:57;101700.34;;;1.32;100.00
30338;BME280;17143;51.888;5.408;2022-12-18T23:47:59;101668.97;;;1.43;100.00
